Time;durP1;ratioP1;P1;durP2;ratioP2;P2;SDS_P1;SDS_P2;PMS_P1;PMS_P2;Temp;Humidity;BMP_temperature;BMP_pressure;BME280_temperature;BME280_humidity;BME280_pressure;Samples;Min_cycle;Max_cycle;Signal;HPM_P1;HPM_P2
2022/08/31 00:05:25;;;;;;;2.03;1.80;;;16.20;97.30;;;;;;5004674;28;20551;-91
2022/08/31 00:07:50;;;;;;;4.87;2.10;;;16.20;97.30;;;;;;5017836;28;20428;-91
2022/08/31 00:10:18;;;;;;;1.60;1.50;;;16.20;97.30;;;;;;5026741;28;20208;-93
2022/08/31 00:12:47;;;;;;;1.63;1.53;;;16.20;97.30;;;;;;5011384;28;20178;-89
2022/08/31 00:15:16;;;;;;;5.00;2.90;;;16.10;97.30;;;;;;5011168;28;20459;-90
2022/08/31 00:17:42;;;;;;;1.40;1.20;;;16.10;97.30;;;;;;4995314;28;20433;-90
2022/08/31 00:20:10;;;;;;;2.27;1.63;;;16.10;97.30;;;;;;4993987;28;20413;-89
2022/08/31 00:22:36;;;;;;;1.63;1.33;;;16.00;97.30;;;;;;4993694;28;20429;-87
2022/08/31 00:25:02;;;;;;;1.33;1.23;;;16.00;97.30;;;;;;4994461;28;20457;-89
2022/08/31 00:27:27;;;;;;;1.63;1.53;;;16.00;97.30;;;;;;4994443;28;20181;-89
2022/08/31 00:29:53;;;;;;;1.67;1.57;;;16.00;97.30;;;;;;4994805;28;20189;-90
2022/08/31 00:32:18;;;;;;;3.60;2.00;;;16.00;97.30;;;;;;4993418;28;20247;-89
2022/08/31 00:34:44;;;;;;;2.10;1.47;;;15.90;97.30;;;;;;4981548;28;20193;-90
2022/08/31 00:37:09;;;;;;;1.90;1.80;;;15.90;97.30;;;;;;5010134;28;20193;-87
2022/08/31 00:39:35;;;;;;;2.80;2.13;;;15.90;97.30;;;;;;4981794;28;20280;-89
2022/08/31 00:42:04;;;;;;;2.60;1.50;;;15.90;97.30;;;;;;4999753;28;20607;-89
2022/08/31 00:44:29;;;;;;;1.57;1.53;;;15.90;97.30;;;;;;4993862;28;20652;-89
2022/08/31 00:46:55;;;;;;;2.30;1.77;;;15.90;97.30;;;;;;4999982;28;20425;-89
2022/08/31 00:49:26;;;;;;;1.47;1.37;;;15.90;97.30;;;;;;4980480;28;20202;-89
2022/08/31 00:52:11;;;;;;;1.90;1.53;;;15.80;97.30;;;;;;4993708;28;20202;-88
2022/08/31 00:54:44;;;;;;;2.37;2.17;;;15.90;97.30;;;;;;4993872;28;20511;-90
2022/08/31 00:57:10;;;;;;;1.60;1.50;;;15.90;97.30;;;;;;4995458;28;20421;-89
2022/08/31 00:59:38;;;;;;;1.53;1.50;;;15.90;97.30;;;;;;4997997;28;20969;-89
2022/08/31 01:02:05;;;;;;;2.30;2.10;;;15.90;97.30;;;;;;4993585;28;20452;-91
2022/08/31 01:04:31;;;;;;;2.50;1.87;;;15.90;97.30;;;;;;4996441;28;20469;-90
2022/08/31 01:06:57;;;;;;;1.47;1.43;;;15.90;97.30;;;;;;4996132;28;20425;-90
2022/08/31 01:09:27;;;;;;;1.53;1.50;;;15.90;97.30;;;;;;4993205;28;20416;-90
2022/08/31 01:11:53;;;;;;;3.03;1.70;;;15.90;97.30;;;;;;4993580;28;21002;-90
2022/08/31 01:14:18;;;;;;;1.50;1.37;;;15.90;97.30;;;;;;4993363;28;20512;-90
2022/08/31 01:16:47;;;;;;;4.17;2.07;;;15.90;97.30;;;;;;4993964;28;21096;-90
2022/08/31 01:19:29;;;;;;;2.00;1.77;;;15.90;97.30;;;;;;4993243;28;20190;-91
2022/08/31 01:22:24;;;;;;;1.40;1.37;;;15.90;97.30;;;;;;4990198;28;20442;-90
2022/08/31 01:24:51;;;;;;;2.20;1.60;;;15.90;97.30;;;;;;4992576;28;20456;-90
2022/08/31 01:27:21;;;;;;;1.83;1.70;;;15.90;97.30;;;;;;5008873;28;20421;-90
2022/08/31 01:29:47;;;;;;;1.87;1.73;;;15.90;97.30;;;;;;4996260;28;20427;-90
2022/08/31 01:32:12;;;;;;;1.80;1.73;;;16.00;97.30;;;;;;5009171;28;20532;-92
2022/08/31 01:34:38;;;;;;;1.77;1.60;;;16.00;97.30;;;;;;5008261;28;20371;-90
2022/08/31 01:37:03;;;;;;;1.40;1.30;;;16.00;97.30;;;;;;4993611;28;20252;-91
2022/08/31 01:39:29;;;;;;;2.00;1.70;;;16.00;97.30;;;;;;5000172;28;20217;-91
2022/08/31 01:41:55;;;;;;;1.83;1.50;;;16.00;97.30;;;;;;4994985;28;20640;-93
2022/08/31 01:44:23;;;;;;;1.80;1.33;;;15.90;97.30;;;;;;4993139;28;20236;-90
2022/08/31 01:46:49;;;;;;;1.60;1.57;;;16.00;97.30;;;;;;4992650;28;20272;-89
2022/08/31 01:49:17;;;;;;;1.33;1.33;;;16.00;97.30;;;;;;4992225;28;20456;-90
2022/08/31 01:51:43;;;;;;;1.27;1.20;;;16.00;97.30;;;;;;4992854;28;20448;-91
2022/08/31 01:54:09;;;;;;;3.00;2.00;;;16.00;97.30;;;;;;4998850;28;20421;-91
2022/08/31 01:56:39;;;;;;;1.50;1.37;;;16.00;97.30;;;;;;5008368;28;20489;-90
2022/08/31 01:59:07;;;;;;;1.87;1.77;;;16.00;97.30;;;;;;5002035;28;20448;-90
2022/08/31 02:01:35;;;;;;;1.50;1.30;;;15.90;97.30;;;;;;4991720;28;20510;-88
2022/08/31 02:04:03;;;;;;;1.67;1.63;;;15.90;97.30;;;;;;4991584;28;20417;-90
2022/08/31 02:06:29;;;;;;;1.70;1.60;;;15.90;97.30;;;;;;4991932;28;20457;-90
2022/08/31 02:08:54;;;;;;;1.40;1.30;;;15.90;97.30;;;;;;4991952;28;20417;-90
2022/08/31 02:11:20;;;;;;;2.07;1.70;;;15.90;97.30;;;;;;4992096;28;20947;-89
2022/08/31 02:13:45;;;;;;;2.40;1.70;;;15.90;97.30;;;;;;4991892;28;20193;-90
2022/08/31 02:16:11;;;;;;;1.10;1.00;;;15.90;97.30;;;;;;5008791;28;20296;-89
2022/08/31 02:18:36;;;;;;;1.50;1.43;;;15.90;97.30;;;;;;4993466;28;20192;-91
2022/08/31 02:21:03;;;;;;;2.37;1.40;;;15.80;97.30;;;;;;4991931;28;20730;-91
2022/08/31 02:23:29;;;;;;;1.30;1.20;;;15.80;97.30;;;;;;4991366;28;20184;-90
2022/08/31 02:25:54;;;;;;;4.70;1.50;;;15.80;97.30;;;;;;4992449;28;20555;-90
2022/08/31 02:28:21;;;;;;;1.03;1.00;;;15.80;97.30;;;;;;4997965;28;20483;-89
2022/08/31 02:30:47;;;;;;;1.97;1.53;;;15.80;97.30;;;;;;4992241;28;20657;-89
2022/08/31 02:33:14;;;;;;;1.57;1.30;;;15.80;97.30;;;;;;4992088;28;20467;-90
2022/08/31 02:35:40;;;;;;;1.57;1.47;;;15.70;97.30;;;;;;4992531;28;20417;-90
2022/08/31 02:38:07;;;;;;;1.30;1.20;;;15.70;97.30;;;;;;4991502;28;20425;-90
2022/08/31 02:40:37;;;;;;;6.53;2.13;;;15.70;97.30;;;;;;4991603;28;20509;-90
2022/08/31 02:43:03;;;;;;;2.03;1.30;;;15.70;97.30;;;;;;4986517;28;20420;-90
2022/08/31 02:45:28;;;;;;;1.63;1.53;;;15.70;97.30;;;;;;4992393;28;20484;-90
2022/08/31 02:47:54;;;;;;;1.67;1.60;;;15.70;97.30;;;;;;5010280;28;20660;-93
2022/08/31 02:50:19;;;;;;;1.40;1.30;;;15.70;97.30;;;;;;5003917;28;20182;-94
2022/08/31 02:52:45;;;;;;;4.20;1.63;;;15.70;97.30;;;;;;5018719;28;20249;-92
2022/08/31 02:55:11;;;;;;;2.53;2.33;;;15.70;97.30;;;;;;5005942;28;20188;-91
2022/08/31 02:57:37;;;;;;;1.10;1.10;;;15.70;97.30;;;;;;4993331;28;20436;-89
2022/08/31 03:00:04;;;;;;;1.80;1.73;;;15.70;97.30;;;;;;4991649;28;20433;-91
2022/08/31 03:02:30;;;;;;;1.30;1.20;;;15.60;97.30;;;;;;4991186;28;20569;-90
2022/08/31 03:04:55;;;;;;;2.30;1.47;;;15.60;97.30;;;;;;4991171;28;20495;-90
2022/08/31 03:07:21;;;;;;;2.13;1.53;;;15.60;97.30;;;;;;4991642;28;20186;-90
2022/08/31 03:09:46;;;;;;;1.90;1.30;;;15.60;97.30;;;;;;4992020;28;20252;-90
2022/08/31 03:12:12;;;;;;;1.57;1.37;;;15.60;97.30;;;;;;5001990;28;20205;-89
2022/08/31 03:14:37;;;;;;;1.90;1.40;;;15.60;97.30;;;;;;4991159;28;20185;-90
2022/08/31 03:17:03;;;;;;;1.83;1.80;;;15.60;97.30;;;;;;4992590;28;20228;-90
2022/08/31 03:19:28;;;;;;;2.30;1.73;;;15.50;97.30;;;;;;4991463;28;20656;-91
2022/08/31 03:21:54;;;;;;;4.63;1.67;;;15.50;97.30;;;;;;5007709;28;20688;-90
2022/08/31 03:24:20;;;;;;;1.20;1.10;;;15.50;97.30;;;;;;4991024;28;20178;-90
2022/08/31 03:26:45;;;;;;;3.90;2.27;;;15.50;97.30;;;;;;4997250;28;20212;-90
2022/08/31 03:29:12;;;;;;;1.53;1.37;;;15.50;97.30;;;;;;4994925;28;20499;-90
2022/08/31 03:31:38;;;;;;;1.43;1.33;;;15.50;97.30;;;;;;4994735;28;20241;-90
2022/08/31 03:34:04;;;;;;;2.33;2.13;;;15.50;97.30;;;;;;4994955;28;20425;-90
2022/08/31 03:36:30;;;;;;;1.60;1.60;;;15.50;97.30;;;;;;4994796;28;20519;-90
2022/08/31 03:38:55;;;;;;;2.20;1.10;;;15.50;97.30;;;;;;4996245;28;20572;-90
2022/08/31 03:41:24;;;;;;;2.33;1.47;;;15.50;97.30;;;;;;4993423;28;20276;-90
2022/08/31 03:43:51;;;;;;;1.93;1.40;;;15.50;97.30;;;;;;4995471;28;20182;-91
2022/08/31 03:46:17;;;;;;;1.57;1.47;;;15.50;97.30;;;;;;4992024;28;20491;-90
2022/08/31 03:48:46;;;;;;;1.83;1.50;;;15.50;97.30;;;;;;4983420;28;20420;-89
2022/08/31 03:51:12;;;;;;;3.30;2.87;;;15.50;97.30;;;;;;4994770;28;20448;-90
2022/08/31 03:53:38;;;;;;;1.43;1.40;;;15.50;97.30;;;;;;4994333;28;20806;-90
2022/08/31 03:56:07;;;;;;;1.53;1.37;;;15.50;97.30;;;;;;5000204;28;20429;-90
2022/08/31 03:58:33;;;;;;;1.73;1.40;;;15.50;97.30;;;;;;4994641;28;20236;-90
2022/08/31 04:00:58;;;;;;;2.20;1.90;;;15.50;97.30;;;;;;4994828;28;20441;-91
2022/08/31 04:03:23;;;;;;;1.87;1.40;;;15.50;97.30;;;;;;4994666;28;20196;-91
2022/08/31 04:05:49;;;;;;;2.37;2.17;;;15.50;97.30;;;;;;4994163;28;20217;-90
2022/08/31 04:08:16;;;;;;;1.87;1.53;;;15.50;97.30;;;;;;5010821;28;20252;-91
2022/08/31 04:10:44;;;;;;;2.33;2.13;;;15.50;97.30;;;;;;4994285;28;20198;-90
2022/08/31 04:13:10;;;;;;;2.03;1.53;;;15.50;97.30;;;;;;4994435;28;20744;-90
2022/08/31 04:15:37;;;;;;;2.20;1.50;;;15.50;97.30;;;;;;4991645;28;20432;-91
2022/08/31 04:18:03;;;;;;;1.80;1.70;;;15.50;97.30;;;;;;4994682;28;20252;-90
2022/08/31 04:20:31;;;;;;;6.67;2.30;;;15.60;97.30;;;;;;4996622;28;20958;-90
2022/08/31 04:22:57;;;;;;;1.57;1.47;;;15.60;97.30;;;;;;5001805;28;20425;-90
2022/08/31 04:25:22;;;;;;;2.23;1.70;;;15.60;97.30;;;;;;4995120;28;20463;-90
2022/08/31 04:27:49;;;;;;;2.73;1.30;;;15.60;97.30;;;;;;5001324;28;20580;-91
2022/08/31 04:30:14;;;;;;;2.30;1.60;;;15.60;97.30;;;;;;4994518;28;20201;-91
2022/08/31 04:32:40;;;;;;;1.73;1.37;;;15.60;97.30;;;;;;4996227;28;20405;-90
2022/08/31 04:35:07;;;;;;;1.63;1.60;;;15.60;97.30;;;;;;4997247;28;20229;-90
2022/08/31 04:37:33;;;;;;;2.23;2.03;;;15.60;97.30;;;;;;5004855;28;20185;-91
2022/08/31 04:40:00;;;;;;;1.37;1.27;;;15.60;97.30;;;;;;5018300;28;20444;-91
2022/08/31 04:42:28;;;;;;;1.77;1.30;;;15.60;97.30;;;;;;5015485;28;20473;-92
2022/08/31 04:44:54;;;;;;;2.07;1.33;;;15.60;97.30;;;;;;5015574;28;20495;-91
2022/08/31 04:47:20;;;;;;;2.90;2.70;;;15.50;97.30;;;;;;4989267;28;20421;-90
2022/08/31 04:49:47;;;;;;;1.07;0.97;;;15.50;97.30;;;;;;5003300;28;20840;-90
2022/08/31 04:52:12;;;;;;;2.40;1.50;;;15.50;97.30;;;;;;4993639;28;20197;-90
2022/08/31 04:54:38;;;;;;;1.60;1.33;;;15.50;97.30;;;;;;4996465;28;20434;-91
2022/08/31 04:57:03;;;;;;;2.60;2.43;;;15.50;97.30;;;;;;5003651;28;20637;-90
2022/08/31 04:59:29;;;;;;;1.40;1.30;;;15.50;97.30;;;;;;4993638;28;20186;-90
2022/08/31 05:01:54;;;;;;;1.67;1.50;;;15.50;97.30;;;;;;4998378;28;20300;-91
2022/08/31 05:04:23;;;;;;;1.80;1.70;;;15.40;97.30;;;;;;4992414;28;20177;-91
2022/08/31 05:06:49;;;;;;;1.37;1.27;;;15.40;97.30;;;;;;4994460;28;20759;-90
2022/08/31 05:09:18;;;;;;;2.53;1.80;;;15.40;97.30;;;;;;5006340;28;20429;-89
2022/08/31 05:11:44;;;;;;;2.37;1.50;;;15.30;97.30;;;;;;5004364;28;20811;-90
2022/08/31 05:14:10;;;;;;;1.57;1.50;;;15.30;97.30;;;;;;5002714;28;20417;-90
2022/08/31 05:16:40;;;;;;;1.60;1.50;;;15.30;97.30;;;;;;5018445;28;20440;-91
2022/08/31 05:19:06;;;;;;;1.90;1.80;;;15.20;97.30;;;;;;4989490;28;20253;-90
2022/08/31 05:21:37;;;;;;;1.20;1.10;;;15.20;97.30;;;;;;4993984;28;20494;-90
2022/08/31 05:24:13;;;;;;;2.07;1.50;;;15.20;97.30;;;;;;4994402;28;20225;-89
2022/08/31 05:26:43;;;;;;;1.97;1.73;;;15.20;97.30;;;;;;4993721;28;20493;-89
2022/08/31 05:29:10;;;;;;;1.97;1.60;;;15.20;97.30;;;;;;4995247;28;20422;-89
2022/08/31 05:31:37;;;;;;;6.10;2.50;;;15.10;97.30;;;;;;4993907;28;20954;-90
2022/08/31 05:34:03;;;;;;;1.80;1.60;;;15.10;97.30;;;;;;5008454;28;20460;-90
2022/08/31 05:36:29;;;;;;;3.53;2.03;;;15.10;97.30;;;;;;4999634;28;20521;-90
2022/08/31 05:38:55;;;;;;;1.87;1.37;;;15.10;97.30;;;;;;4993940;28;20460;-91
2022/08/31 05:41:21;;;;;;;1.10;1.03;;;15.10;97.30;;;;;;4994049;28;20237;-90
2022/08/31 05:43:47;;;;;;;5.53;2.20;;;15.10;97.30;;;;;;5008997;23;20313;-83
2022/08/31 05:46:15;;;;;;;2.87;1.90;;;15.10;97.30;;;;;;4973405;28;20469;-83
2022/08/31 05:48:41;;;;;;;1.83;1.40;;;15.10;97.30;;;;;;4973026;28;20428;-84
2022/08/31 05:51:10;;;;;;;4.83;1.53;;;15.10;97.30;;;;;;4977920;28;20460;-83
2022/08/31 05:53:36;;;;;;;2.07;1.60;;;15.10;97.30;;;;;;4980720;28;20516;-88
2022/08/31 05:56:05;;;;;;;2.30;1.67;;;15.10;97.30;;;;;;4971924;28;20462;-85
2022/08/31 05:58:32;;;;;;;1.97;1.47;;;15.10;97.30;;;;;;4964701;28;20427;-85
2022/08/31 06:00:59;;;;;;;2.13;1.83;;;15.10;97.30;;;;;;4971216;28;20998;-86
2022/08/31 06:03:25;;;;;;;1.50;1.30;;;15.20;97.30;;;;;;4971572;28;20468;-86
2022/08/31 06:05:51;;;;;;;7.23;2.77;;;15.20;97.30;;;;;;4971049;28;21025;-84
2022/08/31 06:08:18;;;;;;;1.50;1.40;;;15.20;97.30;;;;;;4960134;28;20190;-85
2022/08/31 06:10:45;;;;;;;1.40;1.30;;;15.30;97.30;;;;;;4971956;28;20449;-85
2022/08/31 06:13:15;;;;;;;1.33;1.23;;;15.30;97.30;;;;;;4972459;28;20460;-84
2022/08/31 06:15:42;;;;;;;2.67;2.37;;;15.30;97.30;;;;;;4965643;28;20434;-88
2022/08/31 06:18:09;;;;;;;1.50;1.43;;;15.30;97.30;;;;;;4982452;28;20942;-88
2022/08/31 06:20:38;;;;;;;1.60;1.50;;;15.30;97.30;;;;;;4968003;28;20437;-88
2022/08/31 06:23:06;;;;;;;4.30;2.37;;;15.30;97.30;;;;;;4974738;28;20422;-87
2022/08/31 06:25:32;;;;;;;1.60;1.20;;;15.30;97.30;;;;;;4973604;28;20491;-90
2022/08/31 06:27:59;;;;;;;3.23;1.70;;;15.30;97.30;;;;;;4972816;28;20418;-88
2022/08/31 06:30:26;;;;;;;1.53;1.40;;;15.30;97.30;;;;;;4969799;28;20514;-90
2022/08/31 06:32:52;;;;;;;2.50;1.70;;;15.30;97.30;;;;;;4967931;28;20418;-87
2022/08/31 06:35:18;;;;;;;1.40;1.23;;;15.30;97.30;;;;;;4972540;28;20458;-86
2022/08/31 06:37:44;;;;;;;2.27;2.07;;;15.40;97.30;;;;;;4972366;28;20433;-88
2022/08/31 06:40:10;;;;;;;1.53;1.50;;;15.40;97.30;;;;;;4971692;28;20182;-86
2022/08/31 06:42:36;;;;;;;6.67;1.90;;;15.40;97.30;;;;;;4972253;28;20178;-86
2022/08/31 06:45:06;;;;;;;4.40;2.50;;;15.40;97.30;;;;;;4972912;28;20847;-89
2022/08/31 06:47:32;;;;;;;4.30;1.40;;;15.40;97.30;;;;;;4972695;28;20174;-87
2022/08/31 06:49:58;;;;;;;1.30;1.20;;;15.40;97.30;;;;;;4973547;28;20812;-90
2022/08/31 06:52:25;;;;;;;2.07;1.93;;;15.40;97.30;;;;;;4971931;28;20513;-88
2022/08/31 06:54:50;;;;;;;1.43;1.33;;;15.50;97.30;;;;;;4958863;28;20450;-88
2022/08/31 06:57:16;;;;;;;4.40;1.90;;;15.50;97.30;;;;;;4971919;28;20430;-86
2022/08/31 06:59:41;;;;;;;1.70;1.60;;;15.60;97.30;;;;;;4971999;28;20255;-86
2022/08/31 07:02:07;;;;;;;2.33;2.17;;;15.60;97.30;;;;;;4972295;28;20724;-85
2022/08/31 07:04:35;;;;;;;1.57;1.07;;;15.60;97.30;;;;;;4975927;28;20210;-86
2022/08/31 07:07:02;;;;;;;3.13;1.70;;;15.70;97.30;;;;;;4975620;28;20383;-88
2022/08/31 07:09:28;;;;;;;1.30;1.20;;;15.70;97.30;;;;;;4975602;28;20438;-88
2022/08/31 07:11:53;;;;;;;1.87;1.47;;;15.80;97.30;;;;;;4975813;28;20418;-87
2022/08/31 07:14:21;;;;;;;1.43;1.30;;;15.80;97.30;;;;;;4975278;28;20438;-85
2022/08/31 07:16:47;;;;;;;1.50;1.13;;;15.80;97.30;;;;;;4975733;28;20190;-86
2022/08/31 07:19:14;;;;;;;2.23;2.03;;;15.90;97.30;;;;;;4976833;28;20425;-87
2022/08/31 07:21:52;;;;;;;1.53;1.43;;;15.90;97.30;;;;;;4975594;28;20429;-88
2022/08/31 07:24:22;;;;;;;1.50;1.40;;;15.90;97.30;;;;;;4975647;28;20995;-85
2022/08/31 07:26:52;;;;;;;1.73;1.53;;;16.00;97.30;;;;;;4975430;28;20430;-86
2022/08/31 07:29:19;;;;;;;3.93;2.60;;;16.00;97.30;;;;;;4975100;28;20451;-88
2022/08/31 07:31:46;;;;;;;5.33;1.87;;;16.00;97.30;;;;;;4975361;28;20426;-87
2022/08/31 07:34:18;;;;;;;2.73;2.57;;;16.10;97.30;;;;;;4975102;28;20485;-86
2022/08/31 07:42:20;;;;;;;1.87;1.77;;;16.20;97.30;;;;;;4976301;28;20424;-88
2022/08/31 07:44:48;;;;;;;1.90;1.40;;;16.30;97.30;;;;;;4974598;28;21024;-88
2022/08/31 07:47:18;;;;;;;2.00;1.43;;;16.40;97.30;;;;;;4991030;28;20444;-88
2022/08/31 07:49:46;;;;;;;1.43;1.33;;;16.40;97.30;;;;;;4975084;28;20912;-85
2022/08/31 07:52:14;;;;;;;1.57;1.50;;;16.40;97.30;;;;;;4974837;28;20458;-85
2022/08/31 07:54:41;;;;;;;1.80;1.60;;;16.50;97.30;;;;;;4974252;28;20822;-85
2022/08/31 07:57:06;;;;;;;1.67;1.33;;;16.50;97.30;;;;;;4975033;28;20489;-89
2022/08/31 07:59:33;;;;;;;3.57;2.47;;;16.60;97.30;;;;;;4975804;28;20506;-87
2022/08/31 08:02:02;;;;;;;3.63;2.33;;;16.60;97.30;;;;;;4974615;28;20619;-86
2022/08/31 08:04:29;;;;;;;2.33;1.50;;;16.70;97.30;;;;;;4975749;28;20883;-87
2022/08/31 08:06:57;;;;;;;1.40;1.30;;;16.80;97.30;;;;;;4974777;28;20469;-88
2022/08/31 08:09:24;;;;;;;1.93;1.57;;;16.80;97.30;;;;;;4974600;28;20418;-90
2022/08/31 08:11:54;;;;;;;1.63;1.33;;;16.80;97.30;;;;;;4974544;28;20430;-88
2022/08/31 08:14:20;;;;;;;1.70;1.60;;;16.80;97.30;;;;;;4974094;28;20862;-86
2022/08/31 08:16:46;;;;;;;1.30;1.20;;;16.90;97.30;;;;;;4974285;28;20418;-88
2022/08/31 08:19:12;;;;;;;1.67;1.53;;;16.90;97.30;;;;;;4974289;28;20520;-87
2022/08/31 08:21:37;;;;;;;2.00;1.90;;;16.90;97.30;;;;;;4974533;28;20501;-88
2022/08/31 08:24:03;;;;;;;1.90;1.57;;;17.00;97.30;;;;;;4974274;28;20627;-89
2022/08/31 08:26:29;;;;;;;1.70;1.60;;;17.10;97.30;;;;;;4974726;28;20205;-88
2022/08/31 08:28:54;;;;;;;1.57;1.47;;;17.30;97.30;;;;;;4974204;28;20586;-87
2022/08/31 08:31:23;;;;;;;1.67;1.30;;;17.40;97.30;;;;;;4974651;28;20225;-88
2022/08/31 08:33:50;;;;;;;1.17;1.07;;;17.50;97.30;;;;;;4975330;28;20210;-86
2022/08/31 08:36:21;;;;;;;1.57;1.30;;;17.70;97.30;;;;;;4975357;28;20444;-87
2022/08/31 08:38:50;;;;;;;6.10;1.30;;;17.80;97.30;;;;;;4961482;28;20422;-87
2022/08/31 08:41:19;;;;;;;3.10;1.67;;;17.90;97.30;;;;;;4974542;28;20430;-87
2022/08/31 08:43:51;;;;;;;1.40;1.40;;;18.00;97.30;;;;;;4973825;28;20489;-88
2022/08/31 08:46:38;;;;;;;2.60;1.20;;;18.10;97.30;;;;;;4974266;28;21016;-87
2022/08/31 08:49:17;;;;;;;2.00;1.93;;;18.20;97.30;;;;;;4979375;28;20428;-88
2022/08/31 08:51:45;;;;;;;1.77;1.70;;;18.30;97.30;;;;;;4973034;28;20417;-88
2022/08/31 08:54:14;;;;;;;1.20;1.10;;;18.40;97.30;;;;;;4973829;28;20438;-89
2022/08/31 08:56:46;;;;;;;1.73;1.63;;;18.40;97.30;;;;;;4973930;28;20414;-88
2022/08/31 08:59:12;;;;;;;3.33;1.27;;;18.50;97.30;;;;;;4975186;28;20414;-89
2022/08/31 09:01:38;;;;;;;2.60;1.20;;;18.60;97.30;;;;;;4974604;28;20414;-88
2022/08/31 09:04:34;;;;;;;1.67;1.33;;;18.70;97.30;;;;;;4973963;28;20449;-88
2022/08/31 09:07:37;;;;;;;7.10;2.43;;;18.80;97.30;;;;;;4973684;28;20175;-88
2022/08/31 09:10:30;;;;;;;2.07;1.90;;;18.90;97.30;;;;;;4975367;28;20417;-88
2022/08/31 09:12:56;;;;;;;1.13;1.10;;;18.90;97.30;;;;;;4973034;28;20453;-88
2022/08/31 09:15:35;;;;;;;1.30;1.30;;;19.00;97.30;;;;;;4985295;28;20439;-87
2022/08/31 09:18:25;;;;;;;9.10;1.30;;;19.00;97.30;;;;;;4974330;28;20421;-88
2022/08/31 09:21:05;;;;;;;3.53;1.67;;;19.10;97.30;;;;;;4974968;28;20418;-87
2022/08/31 09:23:36;;;;;;;2.13;1.43;;;19.20;97.30;;;;;;4974847;28;20476;-88
2022/08/31 09:26:03;;;;;;;1.53;1.43;;;19.30;97.30;;;;;;4971947;28;20536;-88
2022/08/31 09:28:45;;;;;;;1.40;1.30;;;19.30;97.30;;;;;;4973418;28;20422;-87
2022/08/31 09:31:33;;;;;;;1.47;1.37;;;19.40;97.30;;;;;;4962317;28;20948;-88
2022/08/31 09:33:59;;;;;;;1.07;0.97;;;19.40;97.30;;;;;;4973992;28;20501;-86
2022/08/31 09:36:37;;;;;;;1.20;1.10;;;19.50;96.60;;;;;;4974841;28;20846;-86
2022/08/31 09:39:28;;;;;;;5.37;1.90;;;19.60;96.70;;;;;;4960966;28;20422;-87
2022/08/31 09:42:02;;;;;;;1.30;1.20;;;19.70;97.30;;;;;;4986558;28;20426;-86
2022/08/31 09:44:34;;;;;;;1.57;1.47;;;19.80;97.30;;;;;;4976432;28;20471;-87
2022/08/31 09:47:03;;;;;;;1.50;1.40;;;19.80;96.00;;;;;;4970828;28;20422;-87
2022/08/31 09:49:35;;;;;;;2.43;1.27;;;19.80;96.00;;;;;;4973035;28;20457;-88
2022/08/31 09:55:18;;;;;;;3.23;1.37;;;20.00;94.90;;;;;;4961235;28;21006;-86
2022/08/31 09:57:57;;;;;;;3.20;1.10;;;20.00;94.90;;;;;;4973354;28;20473;-86
2022/08/31 10:00:35;;;;;;;5.60;1.37;;;20.10;95.10;;;;;;4961237;28;20924;-86
2022/08/31 10:03:28;;;;;;;1.00;1.00;;;20.10;95.30;;;;;;4972710;28;20779;-88
2022/08/31 10:05:55;;;;;;;1.67;1.47;;;20.20;95.20;;;;;;4972285;28;21010;-88
2022/08/31 10:08:41;;;;;;;3.67;1.20;;;20.20;95.20;;;;;;4985210;28;20428;-87
2022/08/31 10:11:14;;;;;;;2.73;1.40;;;20.30;94.00;;;;;;4959572;28;20500;-86
2022/08/31 10:13:48;;;;;;;1.20;1.10;;;20.30;95.00;;;;;;4972839;28;20450;-87
2022/08/31 10:16:46;;;;;;;1.17;1.00;;;20.40;94.70;;;;;;4972685;28;20528;-86
2022/08/31 10:19:21;;;;;;;1.97;1.30;;;20.40;94.70;;;;;;4988457;28;20433;-87
2022/08/31 10:21:56;;;;;;;1.17;1.00;;;20.40;93.90;;;;;;4972610;28;20508;-87
2022/08/31 10:24:33;;;;;;;2.43;1.80;;;20.40;93.10;;;;;;4972130;28;20446;-85
2022/08/31 10:27:11;;;;;;;1.10;1.10;;;20.50;93.20;;;;;;4972606;28;20849;-87
2022/08/31 10:29:44;;;;;;;1.60;1.50;;;20.50;93.20;;;;;;4972583;28;20425;-89
2022/08/31 10:32:36;;;;;;;3.20;1.67;;;20.60;93.80;;;;;;4972863;28;20937;-87
2022/08/31 10:35:18;;;;;;;1.30;1.20;;;20.70;94.60;;;;;;4988599;28;20429;-90
2022/08/31 10:38:08;;;;;;;1.67;1.30;;;20.80;94.50;;;;;;4967305;28;20474;-87
2022/08/31 10:40:43;;;;;;;1.20;1.20;;;20.90;93.50;;;;;;4988874;28;20453;-89
2022/08/31 10:43:16;;;;;;;1.30;1.20;;;21.00;93.90;;;;;;4972355;28;20429;-88
2022/08/31 10:45:44;;;;;;;1.37;1.20;;;21.10;93.80;;;;;;4972361;28;20524;-87
2022/08/31 10:48:14;;;;;;;1.50;1.37;;;21.20;93.00;;;;;;4972283;28;20471;-87
2022/08/31 10:50:57;;;;;;;1.40;1.30;;;21.30;92.90;;;;;;4973569;28;20418;-87
2022/08/31 10:53:38;;;;;;;1.20;1.10;;;21.30;93.00;;;;;;4971755;28;20445;-86
2022/08/31 10:56:24;;;;;;;2.70;1.40;;;21.30;91.10;;;;;;4972247;28;20483;-87
2022/08/31 10:59:07;;;;;;;1.43;1.20;;;21.40;91.70;;;;;;4973508;28;20468;-87
2022/08/31 11:01:43;;;;;;;1.60;1.40;;;21.40;92.30;;;;;;4973736;28;20480;-86
2022/08/31 11:04:37;;;;;;;1.17;1.17;;;21.60;92.90;;;;;;4988469;28;20487;-85
2022/08/31 11:07:30;;;;;;;4.93;1.60;;;21.70;91.10;;;;;;4978428;28;20446;-86
2022/08/31 11:10:18;;;;;;;1.83;1.73;;;21.80;91.40;;;;;;4971972;28;20412;-86
2022/08/31 11:12:50;;;;;;;1.70;1.43;;;21.80;91.00;;;;;;4988251;28;20414;-89
2022/08/31 11:15:34;;;;;;;1.17;1.10;;;21.60;90.60;;;;;;4962758;28;20438;-89
2022/08/31 11:18:39;;;;;;;2.53;1.50;;;21.50;90.60;;;;;;4987492;28;20445;-86
2022/08/31 11:21:25;;;;;;;1.57;1.20;;;21.30;90.90;;;;;;4988087;28;20425;-87
2022/08/31 11:24:11;;;;;;;1.70;1.60;;;21.30;91.70;;;;;;4971847;28;20848;-87
2022/08/31 11:26:56;;;;;;;1.43;1.33;;;21.50;92.30;;;;;;4973326;28;20473;-88
2022/08/31 11:29:56;;;;;;;1.40;1.30;;;21.70;92.70;;;;;;4973199;28;20446;-89
2022/08/31 11:32:49;;;;;;;2.37;1.80;;;22.00;91.80;;;;;;4986281;28;20414;-88
2022/08/31 11:35:34;;;;;;;1.43;1.40;;;22.20;91.30;;;;;;4971815;28;20445;-89
2022/08/31 11:38:00;;;;;;;1.27;1.17;;;22.40;91.00;;;;;;4972929;28;20430;-88
2022/08/31 11:40:40;;;;;;;2.80;1.40;;;22.60;89.80;;;;;;4974754;28;20421;-88
2022/08/31 11:43:30;;;;;;;3.23;1.80;;;22.80;90.60;;;;;;4988384;28;20230;-88
2022/08/31 11:46:00;;;;;;;1.87;1.20;;;23.00;89.40;;;;;;4963676;28;20473;-88
2022/08/31 11:48:54;;;;;;;2.13;1.30;;;23.10;89.60;;;;;;4996259;23;20493;-90
2022/08/31 11:51:37;;;;;;;1.20;1.10;;;23.20;88.30;;;;;;4971214;28;20411;-91
2022/08/31 11:54:14;;;;;;;1.60;1.30;;;23.30;86.70;;;;;;4983320;28;20464;-90
2022/08/31 11:56:46;;;;;;;1.63;1.10;;;23.30;86.60;;;;;;4986763;28;20827;-91
2022/08/31 11:59:25;;;;;;;1.80;1.37;;;23.30;88.10;;;;;;4978519;28;20444;-91
2022/08/31 12:01:55;;;;;;;1.10;1.10;;;23.20;86.30;;;;;;4975577;28;20513;-91
2022/08/31 12:04:40;;;;;;;1.20;1.10;;;23.10;85.10;;;;;;4968083;28;20793;-90
2022/08/31 12:07:27;;;;;;;2.03;1.53;;;23.00;85.70;;;;;;4978803;28;20434;-91
2022/08/31 12:09:55;;;;;;;3.00;1.40;;;22.90;87.00;;;;;;4985653;28;20477;-90
2022/08/31 12:12:47;;;;;;;1.00;0.90;;;22.80;86.90;;;;;;4991430;28;20414;-91
2022/08/31 12:15:50;;;;;;;1.07;0.97;;;22.70;87.20;;;;;;4975674;28;20422;-91
2022/08/31 12:18:34;;;;;;;1.37;1.27;;;22.50;86.90;;;;;;4972102;28;20433;-92
2022/08/31 12:24:07;;;;;;;1.30;1.20;;;22.40;87.40;;;;;;4979067;28;20388;-95
2022/08/31 12:26:56;;;;;;;1.00;0.90;;;22.20;87.60;;;;;;5014930;28;20461;-92
2022/08/31 12:29:35;;;;;;;1.87;1.23;;;22.00;87.70;;;;;;4999040;28;20469;-91
2022/08/31 12:32:36;;;;;;;1.00;1.00;;;21.90;87.80;;;;;;5001594;28;20509;-91
2022/08/31 12:35:15;;;;;;;1.10;1.00;;;21.70;87.70;;;;;;4974142;28;20791;-90
2022/08/31 12:37:55;;;;;;;0.80;0.80;;;21.60;87.80;;;;;;4986775;28;20430;-91
2022/08/31 12:40:57;;;;;;;4.03;1.30;;;21.60;86.30;;;;;;4975359;28;20403;-89
2022/08/31 12:43:37;;;;;;;1.67;1.40;;;21.50;86.90;;;;;;4972066;28;20452;-91
2022/08/31 12:46:47;;;;;;;1.00;0.90;;;21.60;87.00;;;;;;4977115;28;20457;-89
2022/08/31 12:49:35;;;;;;;1.07;0.97;;;21.80;86.00;;;;;;4976677;28;20479;-91
2022/08/31 12:52:41;;;;;;;0.80;0.80;;;21.90;86.00;;;;;;4983218;28;20834;-90
2022/08/31 12:55:25;;;;;;;4.10;1.47;;;22.00;86.00;;;;;;4980037;28;20427;-90
2022/08/31 12:58:19;;;;;;;1.20;1.10;;;22.10;86.10;;;;;;4969006;28;20433;-90
2022/08/31 13:00:44;;;;;;;1.00;1.00;;;22.10;85.80;;;;;;4992948;28;20460;-90
2022/08/31 13:03:21;;;;;;;0.93;0.90;;;22.20;86.20;;;;;;4977942;28;20856;-91
2022/08/31 13:06:08;;;;;;;0.90;0.80;;;22.30;86.10;;;;;;4968158;28;20207;-91
2022/08/31 13:08:43;;;;;;;1.20;1.00;;;22.40;86.40;;;;;;4963648;28;20659;-91
2022/08/31 13:11:21;;;;;;;1.80;1.70;;;22.50;87.20;;;;;;4981287;28;20425;-92
2022/08/31 13:13:46;;;;;;;0.90;0.80;;;22.60;87.00;;;;;;4963705;28;20441;-91
2022/08/31 13:16:14;;;;;;;1.00;0.90;;;22.70;87.00;;;;;;4976878;28;20794;-89
2022/08/31 13:18:55;;;;;;;2.17;1.40;;;22.80;86.00;;;;;;4988908;28;20198;-90
2022/08/31 13:21:24;;;;;;;1.40;1.00;;;22.80;86.30;;;;;;4992130;28;20891;-92
2022/08/31 13:24:06;;;;;;;1.27;1.17;;;22.90;86.70;;;;;;4973395;28;20482;-90
2022/08/31 13:26:35;;;;;;;1.00;0.90;;;23.00;86.40;;;;;;4989526;28;20475;-89